sensor_id;sensor_type;location;lat;lon;timestamp;pressure;altitude;pressure_sealevel;temperature;humidity
66164;BME280;52962;51.088;3.096;2023-11-22T00:02:01;102546.44;;;8.53;100.00
66164;BME280;52962;51.088;3.096;2023-11-22T00:04:30;102542.81;;;8.51;100.00
66164;BME280;52962;51.088;3.096;2023-11-22T00:06:58;102533.03;;;8.48;100.00
66164;BME280;52962;51.088;3.096;2023-11-22T00:09:26;102533.44;;;8.40;100.00
66164;BME280;52962;51.088;3.096;2023-11-22T00:11:54;102538.34;;;8.34;100.00
66164;BME280;52962;51.088;3.096;2023-11-22T00:14:24;102525.50;;;8.24;100.00
66164;BME280;52962;51.088;3.096;2023-11-22T00:16:53;102527.88;;;8.19;100.00
66164;BME280;52962;51.088;3.096;2023-11-22T00:19:22;102535.84;;;8.20;100.00
66164;BME280;52962;51.088;3.096;2023-11-22T00:21:50;102535.72;;;8.34;100.00
66164;BME280;52962;51.088;3.096;2023-11-22T00:24:19;102533.66;;;8.28;100.00
66164;BME280;52962;51.088;3.096;2023-11-22T00:26:48;102547.25;;;8.21;100.00
66164;BME280;52962;51.088;3.096;2023-11-22T00:29:16;102562.28;;;8.09;100.00
66164;BME280;52962;51.088;3.096;2023-11-22T00:31:47;102570.06;;;8.07;100.00
66164;BME280;52962;51.088;3.096;2023-11-22T00:34:16;102568.44;;;7.95;100.00
66164;BME280;52962;51.088;3.096;2023-11-22T00:36:47;102568.00;;;7.87;100.00
66164;BME280;52962;51.088;3.096;2023-11-22T00:39:16;102573.69;;;7.80;100.00
66164;BME280;52962;51.088;3.096;2023-11-22T00:41:46;102584.00;;;7.77;100.00
66164;BME280;52962;51.088;3.096;2023-11-22T00:44:14;102584.56;;;7.71;100.00
66164;BME280;52962;51.088;3.096;2023-11-22T00:46:43;102586.91;;;7.67;100.00
66164;BME280;52962;51.088;3.096;2023-11-22T00:49:14;102589.25;;;7.62;100.00
66164;BME280;52962;51.088;3.096;2023-11-22T00:51:42;102590.59;;;7.55;100.00
66164;BME280;52962;51.088;3.096;2023-11-22T00:54:12;102592.31;;;7.55;100.00
66164;BME280;52962;51.088;3.096;2023-11-22T00:56:40;102599.38;;;7.56;100.00
66164;BME280;52962;51.088;3.096;2023-11-22T00:59:09;102590.78;;;7.73;100.00
66164;BME280;52962;51.088;3.096;2023-11-22T01:01:38;102592.97;;;7.80;100.00
66164;BME280;52962;51.088;3.096;2023-11-22T01:04:07;102586.19;;;7.84;100.00
66164;BME280;52962;51.088;3.096;2023-11-22T01:06:37;102582.75;;;7.85;100.00
66164;BME280;52962;51.088;3.096;2023-11-22T01:09:08;102584.38;;;7.68;100.00
66164;BME280;52962;51.088;3.096;2023-11-22T01:11:39;102584.72;;;7.60;100.00
66164;BME280;52962;51.088;3.096;2023-11-22T01:14:08;102594.69;;;7.65;100.00
66164;BME280;52962;51.088;3.096;2023-11-22T01:16:37;102588.81;;;7.69;100.00
66164;BME280;52962;51.088;3.096;2023-11-22T01:19:06;102594.31;;;7.88;100.00
66164;BME280;52962;51.088;3.096;2023-11-22T01:21:37;102592.16;;;7.96;100.00
66164;BME280;52962;51.088;3.096;2023-11-22T01:24:06;102605.34;;;7.98;100.00
66164;BME280;52962;51.088;3.096;2023-11-22T01:26:34;102593.31;;;8.01;100.00
66164;BME280;52962;51.088;3.096;2023-11-22T01:29:04;102601.38;;;8.04;100.00
66164;BME280;52962;51.088;3.096;2023-11-22T01:31:33;102603.19;;;8.05;100.00
66164;BME280;52962;51.088;3.096;2023-11-22T01:34:03;102608.34;;;8.04;100.00
66164;BME280;52962;51.088;3.096;2023-11-22T01:36:34;102602.00;;;8.00;100.00
66164;BME280;52962;51.088;3.096;2023-11-22T01:39:05;102603.91;;;8.03;100.00
66164;BME280;52962;51.088;3.096;2023-11-22T01:41:34;102598.75;;;8.04;100.00
66164;BME280;52962;51.088;3.096;2023-11-22T01:44:03;102600.47;;;8.04;100.00
66164;BME280;52962;51.088;3.096;2023-11-22T01:46:33;102598.56;;;8.01;100.00
66164;BME280;52962;51.088;3.096;2023-11-22T01:49:03;102601.03;;;7.98;100.00
66164;BME280;52962;51.088;3.096;2023-11-22T01:51:33;102599.94;;;7.95;100.00
66164;BME280;52962;51.088;3.096;2023-11-22T01:54:02;102597.94;;;7.91;100.00
66164;BME280;52962;51.088;3.096;2023-11-22T01:56:35;102602.81;;;7.84;100.00
66164;BME280;52962;51.088;3.096;2023-11-22T01:59:04;102594.97;;;7.84;100.00
66164;BME280;52962;51.088;3.096;2023-11-22T02:01:33;102608.88;;;7.83;100.00
66164;BME280;52962;51.088;3.096;2023-11-22T02:04:02;102601.91;;;7.84;100.00
66164;BME280;52962;51.088;3.096;2023-11-22T02:06:31;102612.41;;;7.69;100.00
66164;BME280;52962;51.088;3.096;2023-11-22T02:09:00;102601.09;;;7.70;100.00
66164;BME280;52962;51.088;3.096;2023-11-22T02:11:29;102607.34;;;7.72;100.00
66164;BME280;52962;51.088;3.096;2023-11-22T02:13:59;102602.91;;;7.71;100.00
66164;BME280;52962;51.088;3.096;2023-11-22T02:16:28;102600.28;;;7.71;100.00
66164;BME280;52962;51.088;3.096;2023-11-22T02:18:58;102607.34;;;7.72;100.00
66164;BME280;52962;51.088;3.096;2023-11-22T02:21:27;102603.91;;;7.73;100.00
66164;BME280;52962;51.088;3.096;2023-11-22T02:23:59;102605.53;;;7.71;100.00
66164;BME280;52962;51.088;3.096;2023-11-22T02:26:29;102604.63;;;7.71;100.00
66164;BME280;52962;51.088;3.096;2023-11-22T02:29:26;102610.59;;;7.68;100.00
66164;BME280;52962;51.088;3.096;2023-11-22T02:31:55;102608.78;;;7.67;100.00
66164;BME280;52962;51.088;3.096;2023-11-22T02:34:25;102608.25;;;7.73;100.00
66164;BME280;52962;51.088;3.096;2023-11-22T02:36:54;102611.69;;;7.72;100.00
66164;BME280;52962;51.088;3.096;2023-11-22T02:39:37;102615.13;;;7.71;100.00
66164;BME280;52962;51.088;3.096;2023-11-22T02:42:08;102615.31;;;7.74;100.00
66164;BME280;52962;51.088;3.096;2023-11-22T02:44:37;102624.88;;;7.73;100.00
66164;BME280;52962;51.088;3.096;2023-11-22T02:47:06;102625.78;;;7.74;100.00
66164;BME280;52962;51.088;3.096;2023-11-22T02:49:35;102632.94;;;7.76;100.00
66164;BME280;52962;51.088;3.096;2023-11-22T02:52:05;102631.41;;;7.80;100.00
66164;BME280;52962;51.088;3.096;2023-11-22T02:54:35;102636.13;;;7.85;100.00
66164;BME280;52962;51.088;3.096;2023-11-22T02:57:03;102635.41;;;7.88;100.00
66164;BME280;52962;51.088;3.096;2023-11-22T02:59:32;102639.91;;;7.91;100.00
66164;BME280;52962;51.088;3.096;2023-11-22T03:02:00;102632.03;;;7.91;100.00
66164;BME280;52962;51.088;3.096;2023-11-22T03:04:31;102625.91;;;7.90;100.00
66164;BME280;52962;51.088;3.096;2023-11-22T03:07:01;102631.50;;;7.96;100.00
66164;BME280;52962;51.088;3.096;2023-11-22T03:09:30;102634.31;;;7.99;100.00
66164;BME280;52962;51.088;3.096;2023-11-22T03:12:00;102627.44;;;8.01;100.00
66164;BME280;52962;51.088;3.096;2023-11-22T03:14:29;102627.44;;;8.01;100.00
66164;BME280;52962;51.088;3.096;2023-11-22T03:16:58;102637.22;;;8.04;100.00
66164;BME280;52962;51.088;3.096;2023-11-22T03:19:26;102634.31;;;7.99;100.00
66164;BME280;52962;51.088;3.096;2023-11-22T03:21:55;102637.84;;;8.00;100.00
66164;BME280;52962;51.088;3.096;2023-11-22T03:24:24;102644.44;;;8.08;100.00
66164;BME280;52962;51.088;3.096;2023-11-22T03:26:53;102648.44;;;8.16;100.00
66164;BME280;52962;51.088;3.096;2023-11-22T03:29:28;102644.44;;;8.23;100.00
66164;BME280;52962;51.088;3.096;2023-11-22T03:31:59;102646.63;;;8.15;100.00
66164;BME280;52962;51.088;3.096;2023-11-22T03:34:28;102642.81;;;8.10;100.00
66164;BME280;52962;51.088;3.096;2023-11-22T03:36:59;102645.44;;;8.10;100.00
66164;BME280;52962;51.088;3.096;2023-11-22T03:39:28;102656.03;;;8.11;100.00
66164;BME280;52962;51.088;3.096;2023-11-22T03:41:56;102659.56;;;8.12;100.00
66164;BME280;52962;51.088;3.096;2023-11-22T03:44:25;102656.94;;;8.12;100.00
66164;BME280;52962;51.088;3.096;2023-11-22T03:46:55;102667.34;;;8.10;100.00
66164;BME280;52962;51.088;3.096;2023-11-22T03:49:24;102664.09;;;8.14;100.00
66164;BME280;52962;51.088;3.096;2023-11-22T03:51:53;102665.00;;;8.15;100.00
66164;BME280;52962;51.088;3.096;2023-11-22T03:54:21;102660.56;;;8.14;100.00
66164;BME280;52962;51.088;3.096;2023-11-22T03:56:49;102677.94;;;8.12;100.00
66164;BME280;52962;51.088;3.096;2023-11-22T03:59:18;102680.66;;;8.13;100.00
66164;BME280;52962;51.088;3.096;2023-11-22T04:01:47;102687.16;;;8.20;100.00
66164;BME280;52962;51.088;3.096;2023-11-22T04:04:16;102686.34;;;8.21;100.00
66164;BME280;52962;51.088;3.096;2023-11-22T04:06:45;102695.66;;;8.16;100.00
66164;BME280;52962;51.088;3.096;2023-11-22T04:09:13;102696.56;;;8.31;100.00
66164;BME280;52962;51.088;3.096;2023-11-22T04:11:44;102697.47;;;8.17;100.00
66164;BME280;52962;51.088;3.096;2023-11-22T04:14:14;102690.59;;;8.19;100.00
66164;BME280;52962;51.088;3.096;2023-11-22T04:16:44;102691.97;;;8.27;100.00
66164;BME280;52962;51.088;3.096;2023-11-22T04:19:13;102697.41;;;8.30;100.00
66164;BME280;52962;51.088;3.096;2023-11-22T04:21:46;102699.03;;;8.28;100.00
66164;BME280;52962;51.088;3.096;2023-11-22T04:24:30;102709.34;;;8.25;100.00
66164;BME280;52962;51.088;3.096;2023-11-22T04:26:59;102721.56;;;8.25;100.00
66164;BME280;52962;51.088;3.096;2023-11-22T04:29:30;102727.53;;;8.22;100.00
66164;BME280;52962;51.088;3.096;2023-11-22T04:31:59;102732.25;;;8.28;100.00
66164;BME280;52962;51.088;3.096;2023-11-22T04:34:28;102739.31;;;8.29;100.00
66164;BME280;52962;51.088;3.096;2023-11-22T04:36:59;102735.78;;;8.28;100.00
66164;BME280;52962;51.088;3.096;2023-11-22T04:39:29;102736.69;;;8.29;100.00
66164;BME280;52962;51.088;3.096;2023-11-22T04:41:58;102734.16;;;8.30;100.00
66164;BME280;52962;51.088;3.096;2023-11-22T04:44:27;102735.22;;;8.34;100.00
66164;BME280;52962;51.088;3.096;2023-11-22T04:46:56;102729.16;;;8.35;100.00
66164;BME280;52962;51.088;3.096;2023-11-22T04:49:27;102724.00;;;8.36;100.00
66164;BME280;52962;51.088;3.096;2023-11-22T04:51:58;102719.66;;;8.37;100.00
66164;BME280;52962;51.088;3.096;2023-11-22T04:54:26;102717.84;;;8.36;100.00
66164;BME280;52962;51.088;3.096;2023-11-22T04:56:55;102719.34;;;8.32;100.00
66164;BME280;52962;51.088;3.096;2023-11-22T04:59:24;102721.03;;;8.30;100.00
66164;BME280;52962;51.088;3.096;2023-11-22T05:01:52;102720.13;;;8.30;100.00
66164;BME280;52962;51.088;3.096;2023-11-22T05:04:21;102717.22;;;8.25;100.00
66164;BME280;52962;51.088;3.096;2023-11-22T05:06:49;102719.03;;;8.26;100.00
66164;BME280;52962;51.088;3.096;2023-11-22T05:09:19;102727.91;;;8.28;100.00
66164;BME280;52962;51.088;3.096;2023-11-22T05:11:47;102718.31;;;8.29;100.00
66164;BME280;52962;51.088;3.096;2023-11-22T05:14:15;102717.22;;;8.25;100.00
66164;BME280;52962;51.088;3.096;2023-11-22T05:16:44;102717.13;;;8.24;100.00
66164;BME280;52962;51.088;3.096;2023-11-22T05:19:13;102717.84;;;8.21;100.00
66164;BME280;52962;51.088;3.096;2023-11-22T05:21:41;102721.47;;;8.23;100.00
66164;BME280;52962;51.088;3.096;2023-11-22T05:24:09;102716.84;;;8.19;100.00
66164;BME280;52962;51.088;3.096;2023-11-22T05:26:39;102719.75;;;8.09;100.00
66164;BME280;52962;51.088;3.096;2023-11-22T05:29:09;102720.63;;;8.09;100.00
66164;BME280;52962;51.088;3.096;2023-11-22T05:31:39;102723.16;;;8.08;100.00
66164;BME280;52962;51.088;3.096;2023-11-22T05:34:08;102721.38;;;8.07;100.00
66164;BME280;52962;51.088;3.096;2023-11-22T05:36:36;102722.44;;;8.10;100.00
66164;BME280;52962;51.088;3.096;2023-11-22T05:39:05;102706.06;;;8.00;100.00
66164;BME280;52962;51.088;3.096;2023-11-22T05:41:34;102705.97;;;7.98;100.00
66164;BME280;52962;51.088;3.096;2023-11-22T05:44:05;102702.25;;;7.95;100.00
66164;BME280;52962;51.088;3.096;2023-11-22T05:46:36;102708.31;;;7.94;100.00
66164;BME280;52962;51.088;3.096;2023-11-22T05:49:06;102713.19;;;7.87;100.00
66164;BME280;52962;51.088;3.096;2023-11-22T05:51:38;102706.22;;;7.88;100.00
66164;BME280;52962;51.088;3.096;2023-11-22T05:54:07;102697.25;;;7.84;100.00
66164;BME280;52962;51.088;3.096;2023-11-22T05:56:36;102696.88;;;7.78;100.00
66164;BME280;52962;51.088;3.096;2023-11-22T05:59:07;102712.06;;;7.69;100.00
66164;BME280;52962;51.088;3.096;2023-11-22T06:01:36;102713.69;;;7.67;100.00
66164;BME280;52962;51.088;3.096;2023-11-22T06:04:05;102735.38;;;7.65;100.00
66164;BME280;52962;51.088;3.096;2023-11-22T06:06:36;102730.66;;;7.59;100.00
66164;BME280;52962;51.088;3.096;2023-11-22T06:09:05;102728.75;;;7.57;100.00
66164;BME280;52962;51.088;3.096;2023-11-22T06:11:35;102742.47;;;7.52;100.00
66164;BME280;52962;51.088;3.096;2023-11-22T06:14:06;102742.19;;;7.48;100.00
66164;BME280;52962;51.088;3.096;2023-11-22T06:16:36;102751.97;;;7.50;100.00
66164;BME280;52962;51.088;3.096;2023-11-22T06:19:06;102762.25;;;7.47;100.00
66164;BME280;52962;51.088;3.096;2023-11-22T06:21:35;102767.59;;;7.49;100.00
66164;BME280;52962;51.088;3.096;2023-11-22T06:24:06;102773.66;;;7.48;100.00
66164;BME280;52962;51.088;3.096;2023-11-22T06:26:36;102777.16;;;7.48;100.00
66164;BME280;52962;51.088;3.096;2023-11-22T06:29:09;102777.06;;;7.47;100.00
66164;BME280;52962;51.088;3.096;2023-11-22T06:31:39;102778.09;;;7.49;100.00
66164;BME280;52962;51.088;3.096;2023-11-22T06:34:08;102781.59;;;7.49;100.00
66164;BME280;52962;51.088;3.096;2023-11-22T06:36:37;102786.84;;;7.49;100.00
66164;BME280;52962;51.088;3.096;2023-11-22T06:39:06;102775.34;;;7.47;100.00
66164;BME280;52962;51.088;3.096;2023-11-22T06:41:37;102776.88;;;7.44;100.00
66164;BME280;52962;51.088;3.096;2023-11-22T06:44:06;102781.72;;;7.38;100.00
66164;BME280;52962;51.088;3.096;2023-11-22T06:46:37;102768.22;;;7.45;100.00
66164;BME280;52962;51.088;3.096;2023-11-22T06:49:05;102769.63;;;7.40;100.00
66164;BME280;52962;51.088;3.096;2023-11-22T06:51:33;102758.56;;;7.31;100.00
66164;BME280;52962;51.088;3.096;2023-11-22T06:54:02;102766.97;;;7.25;100.00
66164;BME280;52962;51.088;3.096;2023-11-22T06:56:31;102764.94;;;7.21;100.00
66164;BME280;52962;51.088;3.096;2023-11-22T06:59:01;102763.03;;;7.18;100.00
66164;BME280;52962;51.088;3.096;2023-11-22T07:01:30;102763.66;;;7.14;100.00
66164;BME280;52962;51.088;3.096;2023-11-22T07:04:00;102757.41;;;7.12;100.00
66164;BME280;52962;51.088;3.096;2023-11-22T07:06:31;102761.63;;;7.10;100.00
66164;BME280;52962;51.088;3.096;2023-11-22T07:09:00;102763.84;;;7.17;100.00
66164;BME280;52962;51.088;3.096;2023-11-22T07:11:30;102766.47;;;7.17;100.00
66164;BME280;52962;51.088;3.096;2023-11-22T07:13:58;102760.31;;;7.17;100.00
66164;BME280;52962;51.088;3.096;2023-11-22T07:16:27;102763.84;;;7.17;100.00
66164;BME280;52962;51.088;3.096;2023-11-22T07:18:57;102772.63;;;7.18;100.00
66164;BME280;52962;51.088;3.096;2023-11-22T07:21:27;102776.16;;;7.18;100.00
66164;BME280;52962;51.088;3.096;2023-11-22T07:23:54;102785.63;;;7.16;100.00
66164;BME280;52962;51.088;3.096;2023-11-22T07:26:24;102781.78;;;7.11;100.00
66164;BME280;52962;51.088;3.096;2023-11-22T07:28:54;102775.34;;;7.06;100.00
66164;BME280;52962;51.088;3.096;2023-11-22T07:31:24;102783.22;;;7.06;100.00
66164;BME280;52962;51.088;3.096;2023-11-22T07:33:53;102789.06;;;7.02;100.00
66164;BME280;52962;51.088;3.096;2023-11-22T07:36:23;102801.34;;;7.03;100.00
66164;BME280;52962;51.088;3.096;2023-11-22T07:38:56;102811.41;;;6.97;100.00
66164;BME280;52962;51.088;3.096;2023-11-22T07:41:25;102811.31;;;6.96;100.00
66164;BME280;52962;51.088;3.096;2023-11-22T07:43:53;102822.00;;;6.99;100.00
66164;BME280;52962;51.088;3.096;2023-11-22T07:46:22;102812.84;;;7.05;100.00
66164;BME280;52962;51.088;3.096;2023-11-22T07:48:51;102813.03;;;6.95;100.00
66164;BME280;52962;51.088;3.096;2023-11-22T07:51:23;102810.31;;;6.94;100.00
66164;BME280;52962;51.088;3.096;2023-11-22T07:53:58;102812.72;;;7.04;100.00
66164;BME280;52962;51.088;3.096;2023-11-22T07:56:26;102816.88;;;7.13;100.00
66164;BME280;52962;51.088;3.096;2023-11-22T07:58:56;102828.06;;;7.24;100.00
66164;BME280;52962;51.088;3.096;2023-11-22T08:01:26;102826.59;;;7.29;100.00
66164;BME280;52962;51.088;3.096;2023-11-22T08:03:57;102834.47;;;7.29;100.00
66164;BME280;52962;51.088;3.096;2023-11-22T08:06:26;102839.81;;;7.31;100.00
66164;BME280;52962;51.088;3.096;2023-11-22T08:08:55;102847.06;;;7.35;100.00
66164;BME280;52962;51.088;3.096;2023-11-22T08:11:29;102852.50;;;7.38;100.00
66164;BME280;52962;51.088;3.096;2023-11-22T08:13:58;102857.94;;;7.41;100.00
66164;BME280;52962;51.088;3.096;2023-11-22T08:16:27;102865.41;;;7.48;100.00
66164;BME280;52962;51.088;3.096;2023-11-22T08:18:57;102861.56;;;7.56;100.00
66164;BME280;52962;51.088;3.096;2023-11-22T08:21:27;102862.16;;;7.65;100.00
66164;BME280;52962;51.088;3.096;2023-11-22T08:23:55;102869.63;;;7.72;100.00
66164;BME280;52962;51.088;3.096;2023-11-22T08:26:25;102868.19;;;7.77;100.00
66164;BME280;52962;51.088;3.096;2023-11-22T08:28:54;102867.47;;;7.80;100.00
66164;BME280;52962;51.088;3.096;2023-11-22T08:31:24;102867.16;;;7.88;100.00
66164;BME280;52962;51.088;3.096;2023-11-22T08:33:53;102862.50;;;7.98;100.00
66164;BME280;52962;51.088;3.096;2023-11-22T08:36:23;102868.31;;;8.07;100.00
66164;BME280;52962;51.088;3.096;2023-11-22T08:38:51;102869.34;;;7.96;100.00
66164;BME280;52962;51.088;3.096;2023-11-22T08:41:21;102868.53;;;7.97;100.00
66164;BME280;52962;51.088;3.096;2023-11-22T08:43:50;102863.06;;;8.07;100.00
66164;BME280;52962;51.088;3.096;2023-11-22T08:46:20;102861.69;;;8.27;100.00
66164;BME280;52962;51.088;3.096;2023-11-22T08:48:50;102865.16;;;8.40;100.00
66164;BME280;52962;51.088;3.096;2023-11-22T08:51:20;102858.66;;;8.48;100.00
66164;BME280;52962;51.088;3.096;2023-11-22T08:53:49;102855.59;;;8.56;100.00
66164;BME280;52962;51.088;3.096;2023-11-22T08:56:18;102856.88;;;8.62;100.00
66164;BME280;52962;51.088;3.096;2023-11-22T08:58:48;102852.97;;;8.70;100.00
66164;BME280;52962;51.088;3.096;2023-11-22T09:01:18;102851.44;;;8.74;100.00
66164;BME280;52962;51.088;3.096;2023-11-22T09:03:49;102855.88;;;8.75;100.00
66164;BME280;52962;51.088;3.096;2023-11-22T09:06:19;102843.09;;;8.81;100.00
66164;BME280;52962;51.088;3.096;2023-11-22T09:08:48;102844.28;;;8.86;100.00
66164;BME280;52962;51.088;3.096;2023-11-22T09:11:18;102850.91;;;8.94;100.00
66164;BME280;52962;51.088;3.096;2023-11-22T09:13:50;102857.16;;;8.96;100.00
66164;BME280;52962;51.088;3.096;2023-11-22T09:16:21;102860.06;;;9.01;100.00
66164;BME280;52962;51.088;3.096;2023-11-22T09:18:54;102864.84;;;9.08;100.00
66164;BME280;52962;51.088;3.096;2023-11-22T09:21:25;102861.69;;;9.13;100.00
66164;BME280;52962;51.088;3.096;2023-11-22T09:23:53;102869.28;;;9.24;100.00
66164;BME280;52962;51.088;3.096;2023-11-22T09:26:23;102871.28;;;9.28;100.00
66164;BME280;52962;51.088;3.096;2023-11-22T09:28:51;102877.63;;;9.31;100.00
66164;BME280;52962;51.088;3.096;2023-11-22T09:31:22;102869.91;;;9.34;100.00
66164;BME280;52962;51.088;3.096;2023-11-22T09:33:50;102879.84;;;9.40;100.00
66164;BME280;52962;51.088;3.096;2023-11-22T09:36:20;102877.88;;;9.36;100.00
66164;BME280;52962;51.088;3.096;2023-11-22T09:38:50;102872.75;;;9.39;100.00
66164;BME280;52962;51.088;3.096;2023-11-22T09:41:19;102880.34;;;9.49;100.00
66164;BME280;52962;51.088;3.096;2023-11-22T09:43:48;102877.09;;;9.53;100.00
66164;BME280;52962;51.088;3.096;2023-11-22T09:46:17;102873.47;;;9.51;100.00
66164;BME280;52962;51.088;3.096;2023-11-22T09:48:47;102884.97;;;9.53;100.00
66164;BME280;52962;51.088;3.096;2023-11-22T09:51:23;102891.69;;;9.48;100.00
66164;BME280;52962;51.088;3.096;2023-11-22T09:53:56;102887.06;;;9.44;100.00
66164;BME280;52962;51.088;3.096;2023-11-22T09:56:26;102899.41;;;9.45;100.00
66164;BME280;52962;51.088;3.096;2023-11-22T09:58:55;102889.88;;;9.47;100.00
66164;BME280;52962;51.088;3.096;2023-11-22T10:01:28;102883.06;;;9.50;100.00
66164;BME280;52962;51.088;3.096;2023-11-22T10:03:58;102881.78;;;9.59;100.00
66164;BME280;52962;51.088;3.096;2023-11-22T10:06:29;102873.00;;;9.58;100.00
66164;BME280;52962;51.088;3.096;2023-11-22T10:09:01;102862.63;;;9.61;100.00
66164;BME280;52962;51.088;3.096;2023-11-22T10:11:33;102840.13;;;9.66;100.00
66164;BME280;52962;51.088;3.096;2023-11-22T10:14:03;102824.75;;;9.74;100.00
66164;BME280;52962;51.088;3.096;2023-11-22T10:16:31;102828.97;;;9.70;100.00
66164;BME280;52962;51.088;3.096;2023-11-22T10:18:59;102831.94;;;9.76;100.00
66164;BME280;52962;51.088;3.096;2023-11-22T10:21:29;102830.94;;;9.74;100.00
66164;BME280;52962;51.088;3.096;2023-11-22T10:24:01;102835.28;;;9.74;100.00
66164;BME280;52962;51.088;3.096;2023-11-22T10:26:30;102830.38;;;9.80;100.00
66164;BME280;52962;51.088;3.096;2023-11-22T10:28:59;102812.78;;;9.95;100.00
66164;BME280;52962;51.088;3.096;2023-11-22T10:31:29;102804.47;;;10.04;100.00
66164;BME280;52962;51.088;3.096;2023-11-22T10:33:57;102804.97;;;10.13;100.00
66164;BME280;52962;51.088;3.096;2023-11-22T10:36:26;102809.78;;;10.20;100.00
66164;BME280;52962;51.088;3.096;2023-11-22T10:38:56;102812.22;;;10.17;100.00
66164;BME280;52962;51.088;3.096;2023-11-22T10:41:26;102805.66;;;10.25;100.00
66164;BME280;52962;51.088;3.096;2023-11-22T10:43:54;102800.06;;;10.35;100.00
66164;BME280;52962;51.088;3.096;2023-11-22T10:46:28;102796.22;;;10.46;100.00
66164;BME280;52962;51.088;3.096;2023-11-22T10:48:58;102799.63;;;10.62;100.00
66164;BME280;52962;51.088;3.096;2023-11-22T10:51:30;102794.00;;;10.72;100.00
66164;BME280;52962;51.088;3.096;2023-11-22T10:54:01;102786.94;;;10.71;100.00
66164;BME280;52962;51.088;3.096;2023-11-22T10:56:36;102792.13;;;10.69;100.00
66164;BME280;52962;51.088;3.096;2023-11-22T10:59:09;102790.91;;;10.63;100.00
66164;BME280;52962;51.088;3.096;2023-11-22T11:01:44;102782.19;;;10.64;100.00
66164;BME280;52962;51.088;3.096;2023-11-22T11:04:19;102776.38;;;10.71;100.00
66164;BME280;52962;51.088;3.096;2023-11-22T11:06:54;102774.06;;;10.77;100.00
66164;BME280;52962;51.088;3.096;2023-11-22T11:09:25;102782.59;;;10.89;100.00
66164;BME280;52962;51.088;3.096;2023-11-22T11:11:59;102776.03;;;10.99;100.00
66164;BME280;52962;51.088;3.096;2023-11-22T11:14:34;102772.81;;;11.04;100.00
66164;BME280;52962;51.088;3.096;2023-11-22T11:17:04;102766.00;;;10.92;100.00
66164;BME280;52962;51.088;3.096;2023-11-22T11:19:34;102771.06;;;10.87;100.00
66164;BME280;52962;51.088;3.096;2023-11-22T11:22:03;102766.16;;;10.77;100.00
66164;BME280;52962;51.088;3.096;2023-11-22T11:24:39;102773.31;;;10.79;100.00
66164;BME280;52962;51.088;3.096;2023-11-22T11:27:10;102771.72;;;10.83;100.00
66164;BME280;52962;51.088;3.096;2023-11-22T11:29:41;102779.72;;;10.85;100.00
66164;BME280;52962;51.088;3.096;2023-11-22T11:32:11;102786.94;;;10.89;100.00
66164;BME280;52962;51.088;3.096;2023-11-22T11:34:49;102789.00;;;10.94;100.00
66164;BME280;52962;51.088;3.096;2023-11-22T11:37:19;102802.16;;;10.94;100.00
66164;BME280;52962;51.088;3.096;2023-11-22T11:39:49;102810.22;;;10.97;100.00
66164;BME280;52962;51.088;3.096;2023-11-22T11:42:18;102814.06;;;10.86;100.00
66164;BME280;52962;51.088;3.096;2023-11-22T11:45:03;102821.59;;;10.96;100.00
66164;BME280;52962;51.088;3.096;2023-11-22T11:47:34;102815.28;;;11.10;100.00
66164;BME280;52962;51.088;3.096;2023-11-22T11:50:03;102813.63;;;11.12;100.00
66164;BME280;52962;51.088;3.096;2023-11-22T11:52:33;102814.69;;;11.16;100.00
66164;BME280;52962;51.088;3.096;2023-11-22T11:55:04;102804.66;;;11.27;100.00
66164;BME280;52962;51.088;3.096;2023-11-22T11:57:33;102799.31;;;11.43;100.00
66164;BME280;52962;51.088;3.096;2023-11-22T12:00:04;102776.63;;;11.48;100.00
66164;BME280;52962;51.088;3.096;2023-11-22T12:02:39;102771.44;;;11.50;100.00
66164;BME280;52962;51.088;3.096;2023-11-22T12:05:08;102773.19;;;11.49;100.00
66164;BME280;52962;51.088;3.096;2023-11-22T12:07:37;102770.75;;;11.54;100.00
66164;BME280;52962;51.088;3.096;2023-11-22T12:10:07;102769.63;;;11.29;100.00
66164;BME280;52962;51.088;3.096;2023-11-22T12:12:43;102759.97;;;11.30;100.00
66164;BME280;52962;51.088;3.096;2023-11-22T12:15:12;102754.16;;;11.37;100.00
66164;BME280;52962;51.088;3.096;2023-11-22T12:17:42;102743.31;;;11.50;100.00
66164;BME280;52962;51.088;3.096;2023-11-22T12:20:10;102733.19;;;11.59;100.00
66164;BME280;52962;51.088;3.096;2023-11-22T12:22:41;102724.72;;;11.47;100.00
66164;BME280;52962;51.088;3.096;2023-11-22T12:25:12;102720.63;;;11.54;100.00
66164;BME280;52962;51.088;3.096;2023-11-22T12:27:40;102706.31;;;11.48;100.00
66164;BME280;52962;51.088;3.096;2023-11-22T12:30:09;102716.66;;;11.44;100.00
66164;BME280;52962;51.088;3.096;2023-11-22T12:32:39;102727.91;;;11.40;100.00
66164;BME280;52962;51.088;3.096;2023-11-22T12:35:10;102731.03;;;11.31;100.00
66164;BME280;52962;51.088;3.096;2023-11-22T12:37:39;102733.69;;;11.13;100.00
66164;BME280;52962;51.088;3.096;2023-11-22T12:40:12;102714.00;;;11.25;100.00
66164;BME280;52962;51.088;3.096;2023-11-22T12:42:48;102710.53;;;11.26;100.00
66164;BME280;52962;51.088;3.096;2023-11-22T12:45:21;102713.31;;;11.29;100.00
66164;BME280;52962;51.088;3.096;2023-11-22T12:47:51;102713.47;;;11.32;100.00
66164;BME280;52962;51.088;3.096;2023-11-22T12:50:32;102724.53;;;11.42;100.00
66164;BME280;52962;51.088;3.096;2023-11-22T12:53:10;102720.16;;;11.43;100.00
66164;BME280;52962;51.088;3.096;2023-11-22T12:55:45;102734.19;;;11.42;100.00
66164;BME280;52962;51.088;3.096;2023-11-22T12:58:17;102735.25;;;11.47;100.00
66164;BME280;52962;51.088;3.096;2023-11-22T13:00:49;102727.69;;;11.55;100.00
66164;BME280;52962;51.088;3.096;2023-11-22T13:03:17;102706.22;;;11.47;100.00